createdAt,value
2023-01-30T00:00:10.910Z,18.03
2023-01-30T00:01:17.477Z,16.23
2023-01-30T00:02:19.230Z,13.73
2023-01-30T00:03:22.667Z,16.93
2023-01-30T00:04:25.416Z,13.43
2023-01-30T00:05:27.431Z,12.20
2023-01-30T00:06:30.190Z,15.43
2023-01-30T00:07:31.888Z,15.27
2023-01-30T00:08:34.575Z,15.13
2023-01-30T00:09:36.334Z,17.93
2023-01-30T00:10:39.156Z,14.67
2023-01-30T00:11:42.566Z,13.73
2023-01-30T00:12:44.353Z,16.50
2023-01-30T00:13:47.667Z,19.50
2023-01-30T00:14:50.704Z,14.43
2023-01-30T00:15:53.410Z,15.20
2023-01-30T00:16:55.143Z,14.33
2023-01-30T00:17:57.843Z,13.40
2023-01-30T00:19:00.568Z,14.33
2023-01-30T00:20:02.574Z,15.13
2023-01-30T00:21:06.919Z,11.83
2023-01-30T00:22:08.701Z,12.67
2023-01-30T00:23:11.462Z,15.73
2023-01-30T00:24:13.601Z,13.97
2023-01-30T00:25:16.562Z,19.27
2023-01-30T00:26:18.382Z,13.50
2023-01-30T00:27:21.230Z,13.20
2023-01-30T00:28:23.398Z,15.27
2023-01-30T00:29:26.078Z,15.87
2023-01-30T00:30:29.868Z,15.57
2023-01-30T00:31:32.523Z,16.47
2023-01-30T00:32:34.207Z,15.27
2023-01-30T00:33:38.569Z,16.73
2023-01-30T00:34:40.281Z,15.53
2023-01-30T00:35:45.979Z,15.73
2023-01-30T00:36:55.992Z,16.57
2023-01-30T00:38:08.094Z,16.47
2023-01-30T00:39:10.804Z,12.97
2023-01-30T00:40:12.643Z,15.13
2023-01-30T00:41:16.813Z,16.47
2023-01-30T00:42:36.973Z,16.00
2023-01-30T00:43:57.142Z,20.10
2023-01-30T00:45:25.841Z,9.03
2023-01-30T00:46:45.595Z,12.97
2023-01-30T00:47:49.867Z,15.87
2023-01-30T00:48:51.569Z,14.47
2023-01-30T00:49:54.340Z,14.13
2023-01-30T00:50:56.062Z,14.03
2023-01-30T00:51:59.016Z,14.53
2023-01-30T00:53:00.706Z,16.17
2023-01-30T00:54:03.889Z,10.97
2023-01-30T00:55:06.633Z,13.90
2023-01-30T00:56:09.336Z,15.60
2023-01-30T00:57:11.161Z,13.47
2023-01-30T00:58:14.452Z,14.57
2023-01-30T00:59:16.173Z,12.07
2023-01-30T01:00:19.286Z,8.17
2023-01-30T01:01:20.965Z,12.43
2023-01-30T01:02:25.026Z,14.80
2023-01-30T01:03:26.762Z,13.93
2023-01-30T01:04:30.289Z,12.67
2023-01-30T01:05:32.030Z,13.17
2023-01-30T01:06:34.807Z,15.53
2023-01-30T01:07:36.497Z,12.57
2023-01-30T01:08:39.219Z,13.40
2023-01-30T01:09:40.971Z,12.77
2023-01-30T01:10:43.659Z,13.90
2023-01-30T01:11:45.377Z,14.13
2023-01-30T01:12:48.335Z,13.37
2023-01-30T01:13:51.832Z,13.40
2023-01-30T01:14:54.506Z,15.30
2023-01-30T01:15:56.354Z,14.90
2023-01-30T01:16:59.356Z,13.80
2023-01-30T01:18:03.094Z,9.67
2023-01-30T01:19:06.146Z,11.03
2023-01-30T01:20:09.663Z,11.23
2023-01-30T01:21:13.246Z,15.83
2023-01-30T01:22:14.927Z,11.60
2023-01-30T01:23:17.865Z,12.37
2023-01-30T01:24:19.658Z,9.07
2023-01-30T01:25:22.954Z,10.80
2023-01-30T01:26:24.939Z,7.87
2023-01-30T01:27:27.686Z,15.17
2023-01-30T01:28:29.511Z,14.87
2023-01-30T01:29:32.248Z,11.33
2023-01-30T01:30:33.972Z,10.53
2023-01-30T01:31:36.658Z,10.50
2023-01-30T01:32:38.361Z,14.20
2023-01-30T01:33:42.587Z,11.13
2023-01-30T01:34:44.330Z,14.50
2023-01-30T01:35:47.676Z,16.10
2023-01-30T01:36:53.986Z,13.10
2023-01-30T01:37:57.361Z,12.10
2023-01-30T01:38:59.092Z,16.13
2023-01-30T01:40:15.647Z,13.67
2023-01-30T01:41:19.021Z,12.40
2023-01-30T01:42:20.783Z,14.80
2023-01-30T01:43:25.206Z,8.30
2023-01-30T01:44:26.969Z,14.37
2023-01-30T01:45:30.973Z,12.30
2023-01-30T01:46:35.392Z,13.73
2023-01-30T01:47:39.551Z,13.90
2023-01-30T01:48:48.262Z,12.17
2023-01-30T01:49:51.022Z,11.97
2023-01-30T01:50:55.596Z,12.27
2023-01-30T01:52:01.000Z,12.03
2023-01-30T01:53:02.827Z,11.40
2023-01-30T01:54:09.610Z,11.53
2023-01-30T01:55:11.886Z,14.97
2023-01-30T01:56:16.000Z,12.90
2023-01-30T01:57:22.358Z,11.17
2023-01-30T01:58:28.556Z,12.57
2023-01-30T01:59:33.078Z,10.23
2023-01-30T02:00:35.772Z,15.50
2023-01-30T02:01:37.525Z,17.00
2023-01-30T02:02:41.281Z,12.87
2023-01-30T02:03:48.487Z,13.70
2023-01-30T02:05:02.931Z,10.50
2023-01-30T02:06:06.804Z,13.30
2023-01-30T02:07:09.283Z,11.53
2023-01-30T02:08:13.482Z,15.30
2023-01-30T02:09:15.202Z,15.10
2023-01-30T02:10:20.393Z,13.47
2023-01-30T02:11:27.148Z,14.90
2023-01-30T02:12:29.876Z,14.50
2023-01-30T02:13:31.999Z,11.97
2023-01-30T02:14:35.270Z,11.83
2023-01-30T02:15:37.021Z,13.70
2023-01-30T02:16:39.737Z,12.73
2023-01-30T02:17:41.497Z,13.97
2023-01-30T02:18:46.402Z,11.40
2023-01-30T02:19:51.778Z,17.27
2023-01-30T02:21:08.966Z,14.10
2023-01-30T02:22:32.200Z,12.63
2023-01-30T02:23:57.703Z,10.23
2023-01-30T02:25:28.591Z,16.00
2023-01-30T02:26:57.216Z,14.30
2023-01-30T02:28:22.163Z,13.07
2023-01-30T02:29:39.925Z,11.93
2023-01-30T02:31:03.527Z,12.47
2023-01-30T02:32:09.031Z,14.67
2023-01-30T02:33:18.279Z,13.43
2023-01-30T02:34:30.066Z,13.50
2023-01-30T02:35:39.112Z,11.50
2023-01-30T02:36:46.652Z,14.50
2023-01-30T02:37:58.866Z,9.50
2023-01-30T02:39:07.050Z,14.87
2023-01-30T02:40:19.485Z,16.37
2023-01-30T02:41:27.559Z,14.83
2023-01-30T02:42:37.303Z,13.43
2023-01-30T02:43:44.949Z,14.50
2023-01-30T02:44:53.633Z,12.33
2023-01-30T02:46:01.098Z,12.60
2023-01-30T02:47:06.152Z,13.37
2023-01-30T02:48:10.210Z,13.73
2023-01-30T02:49:16.086Z,12.77
2023-01-30T02:50:21.393Z,14.30
2023-01-30T02:51:26.326Z,13.10
2023-01-30T02:52:29.572Z,12.93
2023-01-30T02:53:33.732Z,9.97
2023-01-30T02:54:35.504Z,10.40
2023-01-30T02:55:41.445Z,16.20
2023-01-30T02:56:45.513Z,14.07
2023-01-30T02:57:48.334Z,13.70
2023-01-30T02:58:55.519Z,13.37
2023-01-30T02:59:59.486Z,12.57
2023-01-30T03:01:38.839Z,10.87
2023-01-30T03:03:14.070Z,13.43
2023-01-30T03:04:44.824Z,9.63
2023-01-30T03:06:02.107Z,12.43
2023-01-30T03:07:16.463Z,14.97
2023-01-30T03:08:26.093Z,14.23
2023-01-30T03:09:33.950Z,9.80
2023-01-30T03:10:38.755Z,9.67
2023-01-30T03:11:46.314Z,17.00
2023-01-30T03:12:50.441Z,10.63
2023-01-30T03:13:57.241Z,13.40
2023-01-30T03:15:01.422Z,12.47
2023-01-30T03:16:06.703Z,12.07
2023-01-30T03:17:11.287Z,15.40
2023-01-30T03:18:14.146Z,11.97
2023-01-30T03:19:16.063Z,12.53
2023-01-30T03:20:20.217Z,13.13
2023-01-30T03:21:21.936Z,12.23
2023-01-30T03:22:24.665Z,13.60
2023-01-30T03:23:26.333Z,12.00
2023-01-30T03:24:29.066Z,14.13
2023-01-30T03:25:32.225Z,12.87
2023-01-30T03:26:38.418Z,14.90
2023-01-30T03:27:40.649Z,13.67
2023-01-30T03:28:43.509Z,14.77
2023-01-30T03:29:45.326Z,16.17
2023-01-30T03:30:48.168Z,16.17
2023-01-30T03:31:50.026Z,13.47
2023-01-30T03:32:54.094Z,12.53
2023-01-30T03:33:55.883Z,15.47
2023-01-30T03:34:58.669Z,11.70
2023-01-30T03:36:00.437Z,8.73
2023-01-30T03:37:03.176Z,11.07
2023-01-30T03:38:05.013Z,14.80
2023-01-30T03:39:08.352Z,13.07
2023-01-30T03:40:11.949Z,15.47
2023-01-30T03:41:14.761Z,11.60
2023-01-30T03:42:16.648Z,17.07
2023-01-30T03:43:19.323Z,14.10
2023-01-30T03:44:21.190Z,11.83
2023-01-30T03:45:23.912Z,11.93
2023-01-30T03:46:25.688Z,12.23
2023-01-30T03:47:28.447Z,13.03
2023-01-30T03:48:31.516Z,11.50
2023-01-30T03:49:34.312Z,14.10
2023-01-30T03:50:36.015Z,7.80
2023-01-30T03:51:38.762Z,11.50
2023-01-30T03:52:40.504Z,10.03
2023-01-30T03:53:43.343Z,8.93
2023-01-30T03:54:45.104Z,13.13
2023-01-30T03:55:47.873Z,12.93
2023-01-30T03:56:49.597Z,13.43
2023-01-30T03:57:56.403Z,13.20
2023-01-30T03:58:58.163Z,13.07
2023-01-30T04:00:00.905Z,14.27
2023-01-30T04:01:02.631Z,13.17
2023-01-30T04:02:05.507Z,13.83
2023-01-30T04:03:07.692Z,11.90
2023-01-30T04:04:11.880Z,11.53
2023-01-30T04:05:13.619Z,10.23
2023-01-30T04:06:16.474Z,13.50
2023-01-30T04:07:18.268Z,14.83
2023-01-30T04:08:20.962Z,10.50
2023-01-30T04:09:22.666Z,12.97
2023-01-30T04:10:25.561Z,10.93
2023-01-30T04:11:27.312Z,12.93
2023-01-30T04:12:30.050Z,11.03
2023-01-30T04:13:31.866Z,11.77
2023-01-30T04:14:34.887Z,12.87
2023-01-30T04:15:36.613Z,15.13
2023-01-30T04:16:39.516Z,13.77
2023-01-30T04:17:42.956Z,7.37
2023-01-30T04:18:45.918Z,12.00
2023-01-30T04:19:49.031Z,15.30
2023-01-30T04:20:51.700Z,15.00
2023-01-30T04:21:53.445Z,15.27
2023-01-30T04:22:56.421Z,16.80
2023-01-30T04:23:58.192Z,10.47
2023-01-30T04:25:00.938Z,14.40
2023-01-30T04:26:02.654Z,12.17
2023-01-30T04:27:05.444Z,11.73
2023-01-30T04:28:07.170Z,14.50
2023-01-30T04:29:10.012Z,12.83
2023-01-30T04:30:12.095Z,15.57
2023-01-30T04:31:14.870Z,12.10
2023-01-30T04:32:16.606Z,11.80
2023-01-30T04:33:19.317Z,11.10
2023-01-30T04:34:21.093Z,16.57
2023-01-30T04:35:25.266Z,13.00
2023-01-30T04:36:29.259Z,13.13
2023-01-30T04:37:31.047Z,8.80
2023-01-30T04:38:34.302Z,12.47
2023-01-30T04:39:36.015Z,13.00
2023-01-30T04:40:38.723Z,11.20
2023-01-30T04:41:40.494Z,13.07
2023-01-30T04:42:43.232Z,12.33
2023-01-30T04:43:45.090Z,11.53
2023-01-30T04:44:47.786Z,15.27
2023-01-30T04:45:50.176Z,6.80
2023-01-30T04:46:52.835Z,13.97
2023-01-30T04:47:54.578Z,11.57
2023-01-30T04:48:57.280Z,16.77
2023-01-30T04:49:59.006Z,10.40
2023-01-30T04:51:03.263Z,14.50
2023-01-30T04:52:05.294Z,9.53
2023-01-30T04:53:08.053Z,13.47
2023-01-30T04:54:09.788Z,12.77
2023-01-30T04:55:12.769Z,11.40
2023-01-30T04:56:14.447Z,10.87
2023-01-30T04:57:17.134Z,14.50
2023-01-30T04:58:19.339Z,16.30
2023-01-30T04:59:22.091Z,16.40
2023-01-30T05:00:24.144Z,14.30
2023-01-30T05:01:32.096Z,16.40
2023-01-30T05:02:33.831Z,13.40
2023-01-30T05:03:36.596Z,16.13
2023-01-30T05:04:38.401Z,8.87
2023-01-30T05:05:41.117Z,13.73
2023-01-30T05:06:44.179Z,16.13
2023-01-30T05:07:46.863Z,16.37
2023-01-30T05:08:49.668Z,14.30
2023-01-30T05:09:52.326Z,12.73
2023-01-30T05:10:54.024Z,12.80
2023-01-30T05:11:56.776Z,12.83
2023-01-30T05:13:02.264Z,13.43
2023-01-30T05:14:05.014Z,15.87
2023-01-30T05:15:07.630Z,13.17
2023-01-30T05:16:10.973Z,15.30
2023-01-30T05:17:12.734Z,14.97
2023-01-30T05:18:15.380Z,17.97
2023-01-30T05:19:17.282Z,12.97
2023-01-30T05:20:20.096Z,15.73
2023-01-30T05:21:23.263Z,16.57
2023-01-30T05:22:27.432Z,12.50
2023-01-30T05:23:29.100Z,15.43
2023-01-30T05:24:31.789Z,14.83
2023-01-30T05:25:33.497Z,13.47
2023-01-30T05:26:36.281Z,10.47
2023-01-30T05:27:38.099Z,10.50
2023-01-30T05:28:41.599Z,17.70
2023-01-30T05:29:43.373Z,15.97
2023-01-30T05:30:47.344Z,15.70
2023-01-30T05:31:49.310Z,18.83
2023-01-30T05:32:52.121Z,16.33
2023-01-30T05:33:53.982Z,11.97
2023-01-30T05:34:56.789Z,14.83
2023-01-30T05:35:59.143Z,14.60
2023-01-30T05:37:01.932Z,16.67
2023-01-30T05:38:05.332Z,11.60
2023-01-30T05:39:08.079Z,18.33
2023-01-30T05:40:11.605Z,13.87
2023-01-30T05:41:17.010Z,16.67
2023-01-30T05:42:18.915Z,11.53
2023-01-30T05:43:21.597Z,16.07
2023-01-30T05:44:23.359Z,13.73
2023-01-30T05:45:26.181Z,12.63
2023-01-30T05:46:28.000Z,9.13
2023-01-30T05:47:30.681Z,17.03
2023-01-30T05:48:33.175Z,13.80
2023-01-30T05:49:35.871Z,16.87
2023-01-30T05:50:37.555Z,10.90
2023-01-30T05:51:40.423Z,13.37
2023-01-30T05:52:42.195Z,16.37
2023-01-30T05:53:46.376Z,14.67
2023-01-30T05:54:49.131Z,14.47
2023-01-30T05:55:55.445Z,15.77
2023-01-30T05:56:58.194Z,11.50
2023-01-30T05:57:59.977Z,12.80
2023-01-30T05:59:03.470Z,15.03
2023-01-30T06:00:06.365Z,15.53
2023-01-30T06:01:13.698Z,13.63
2023-01-30T06:02:15.409Z,11.13
2023-01-30T06:03:18.131Z,11.77
2023-01-30T06:04:19.984Z,11.57
2023-01-30T06:05:22.666Z,14.30
2023-01-30T06:06:25.911Z,13.63
2023-01-30T06:07:27.654Z,12.03
2023-01-30T06:08:30.887Z,14.47
2023-01-30T06:09:34.146Z,15.83
2023-01-30T06:10:36.867Z,11.43
2023-01-30T06:11:38.935Z,14.87
2023-01-30T06:12:41.742Z,13.73
2023-01-30T06:13:43.851Z,9.73
2023-01-30T06:14:46.571Z,11.33
2023-01-30T06:15:48.370Z,9.97
2023-01-30T06:16:51.559Z,13.63
2023-01-30T06:17:53.259Z,10.20
2023-01-30T06:18:55.957Z,11.43
2023-01-30T06:19:57.648Z,12.27
2023-01-30T06:21:00.360Z,8.70
2023-01-30T06:22:03.126Z,14.30
2023-01-30T06:23:05.843Z,12.43
2023-01-30T06:24:07.832Z,12.80
2023-01-30T06:25:12.449Z,13.07
2023-01-30T06:26:14.172Z,10.60
2023-01-30T06:27:16.900Z,14.70
2023-01-30T06:28:19.370Z,11.53
2023-01-30T06:29:22.213Z,8.90
2023-01-30T06:30:24.027Z,9.27
2023-01-30T06:31:26.955Z,43.73
2023-01-30T06:32:29.786Z,10.43
2023-01-30T06:33:31.506Z,8.90
2023-01-30T06:34:34.236Z,10.73
2023-01-30T06:35:37.621Z,11.10
2023-01-30T06:36:40.307Z,11.80
2023-01-30T06:37:42.010Z,9.43
2023-01-30T06:38:44.740Z,12.07
2023-01-30T06:39:46.466Z,12.73
2023-01-30T06:40:51.439Z,13.27
2023-01-30T06:41:53.156Z,10.73
2023-01-30T06:42:55.921Z,14.30
2023-01-30T06:43:57.668Z,11.23
2023-01-30T06:45:00.648Z,10.43
2023-01-30T06:46:02.455Z,13.57
2023-01-30T06:47:05.369Z,14.87
2023-01-30T06:48:07.483Z,13.07
2023-01-30T06:49:10.241Z,10.53
2023-01-30T06:50:12.084Z,13.00
2023-01-30T06:51:14.944Z,9.50
2023-01-30T06:52:16.745Z,8.63
2023-01-30T06:53:19.462Z,10.63
2023-01-30T06:54:22.148Z,10.27
2023-01-30T06:55:26.011Z,10.97
2023-01-30T06:56:30.053Z,11.00
2023-01-30T06:57:31.725Z,10.67
2023-01-30T06:58:34.391Z,10.37
2023-01-30T06:59:36.162Z,9.63
2023-01-30T07:00:40.531Z,9.00
2023-01-30T07:01:43.417Z,10.23
2023-01-30T07:02:45.269Z,6.80
2023-01-30T07:03:48.599Z,8.53
2023-01-30T07:04:50.402Z,11.47
2023-01-30T07:05:53.085Z,9.33
2023-01-30T07:06:55.047Z,10.77
2023-01-30T07:07:57.714Z,10.53
2023-01-30T07:08:59.474Z,11.83
2023-01-30T07:10:08.231Z,11.23
2023-01-30T07:11:11.520Z,9.93
2023-01-30T07:12:14.790Z,11.10
2023-01-30T07:13:17.510Z,10.73
2023-01-30T07:14:19.638Z,9.23
2023-01-30T07:15:22.328Z,11.63
2023-01-30T07:16:29.263Z,9.10
2023-01-30T07:17:31.073Z,10.27
2023-01-30T07:18:33.843Z,11.23
2023-01-30T07:19:35.550Z,11.83
2023-01-30T07:20:38.217Z,13.77
2023-01-30T07:21:39.881Z,7.67
2023-01-30T07:22:42.567Z,9.97
2023-01-30T07:23:45.275Z,10.90
2023-01-30T07:24:47.076Z,7.73
2023-01-30T07:25:49.825Z,10.60
2023-01-30T07:26:51.561Z,8.00
2023-01-30T07:27:56.686Z,8.33
2023-01-30T07:28:58.670Z,9.73
2023-01-30T07:30:01.436Z,12.03
2023-01-30T07:31:04.201Z,6.17
2023-01-30T07:32:06.608Z,8.70
2023-01-30T07:33:09.376Z,9.77
2023-01-30T07:34:11.192Z,10.30
2023-01-30T07:35:14.957Z,8.17
2023-01-30T07:36:17.979Z,14.57
2023-01-30T07:37:19.716Z,9.90
2023-01-30T07:38:22.440Z,7.47
2023-01-30T07:39:24.201Z,9.23
2023-01-30T07:40:27.685Z,9.87
2023-01-30T07:41:29.419Z,10.27
2023-01-30T07:42:32.069Z,13.03
2023-01-30T07:43:36.112Z,9.10
2023-01-30T07:44:37.829Z,9.53
2023-01-30T07:45:42.085Z,11.17
2023-01-30T07:46:43.846Z,11.03
2023-01-30T07:47:46.509Z,11.40
2023-01-30T07:48:49.249Z,7.80
2023-01-30T07:49:50.965Z,9.33
2023-01-30T07:50:56.898Z,11.07
2023-01-30T07:51:59.625Z,9.87
2023-01-30T07:53:04.237Z,8.37
2023-01-30T07:54:07.007Z,8.90
2023-01-30T07:55:09.814Z,7.87
2023-01-30T07:56:14.213Z,10.17
2023-01-30T07:57:17.190Z,12.47
2023-01-30T07:58:19.889Z,10.23
2023-01-30T07:59:23.099Z,11.53
2023-01-30T08:00:26.538Z,8.90
2023-01-30T08:01:29.563Z,11.07
2023-01-30T08:02:32.319Z,11.23
2023-01-30T08:03:34.980Z,9.70
2023-01-30T08:04:36.759Z,10.43
2023-01-30T08:05:39.585Z,12.90
2023-01-30T08:06:42.404Z,8.37
2023-01-30T08:07:44.184Z,9.17
2023-01-30T08:08:47.085Z,10.30
2023-01-30T08:09:49.813Z,11.90
2023-01-30T08:10:52.563Z,11.10
2023-01-30T08:11:54.342Z,10.23
2023-01-30T08:12:57.009Z,12.07
2023-01-30T08:13:58.754Z,8.67
2023-01-30T08:15:03.133Z,9.47
2023-01-30T08:16:07.836Z,10.13
2023-01-30T08:17:09.641Z,10.83
2023-01-30T08:18:12.482Z,10.50
2023-01-30T08:19:15.219Z,9.57
2023-01-30T08:20:18.518Z,11.23
2023-01-30T08:21:21.336Z,9.37
2023-01-30T08:22:23.139Z,10.00
2023-01-30T08:23:26.324Z,8.90
2023-01-30T08:24:31.809Z,12.73
2023-01-30T08:25:35.367Z,7.37
2023-01-30T08:26:38.179Z,7.03
2023-01-30T08:27:39.953Z,10.63
2023-01-30T08:28:42.676Z,11.70
2023-01-30T08:29:45.708Z,10.10
2023-01-30T08:30:49.249Z,8.63
2023-01-30T08:31:51.942Z,9.97
2023-01-30T08:32:54.640Z,8.33
2023-01-30T08:33:56.354Z,13.90
2023-01-30T08:34:59.051Z,8.33
2023-01-30T08:36:00.751Z,12.67
2023-01-30T08:37:03.677Z,9.77
2023-01-30T08:38:09.241Z,10.00
2023-01-30T08:39:12.255Z,12.83
2023-01-30T08:40:15.718Z,6.63
2023-01-30T08:41:17.492Z,8.27
2023-01-30T08:42:20.131Z,11.83
2023-01-30T08:43:22.891Z,9.13
2023-01-30T08:44:25.622Z,8.90
2023-01-30T08:45:27.311Z,8.30
2023-01-30T08:46:31.428Z,8.13
2023-01-30T08:47:35.690Z,8.97
2023-01-30T08:48:49.646Z,7.67
2023-01-30T08:49:53.110Z,10.13
2023-01-30T08:50:56.715Z,16.60
2023-01-30T08:51:58.548Z,9.20
2023-01-30T08:53:05.016Z,11.03
2023-01-30T08:54:08.645Z,10.47
2023-01-30T08:55:12.076Z,9.77
2023-01-30T08:56:14.751Z,10.47
2023-01-30T08:57:16.541Z,12.70
2023-01-30T08:58:19.468Z,13.87
2023-01-30T08:59:22.235Z,10.57
2023-01-30T09:00:24.090Z,12.07
2023-01-30T09:01:29.878Z,11.67
2023-01-30T09:02:34.055Z,9.60
2023-01-30T09:03:36.831Z,10.40
2023-01-30T09:04:38.636Z,14.33
2023-01-30T09:05:41.401Z,9.97
2023-01-30T09:06:43.122Z,9.67
2023-01-30T09:07:48.691Z,8.17
2023-01-30T09:08:51.553Z,6.60
2023-01-30T09:09:53.278Z,13.63
2023-01-30T09:10:58.967Z,11.00
2023-01-30T09:12:01.687Z,17.90
2023-01-30T09:13:05.493Z,15.67
2023-01-30T09:14:07.284Z,12.50
2023-01-30T09:15:11.306Z,10.37
2023-01-30T09:16:14.158Z,12.10
2023-01-30T09:17:16.824Z,10.53
2023-01-30T09:18:20.160Z,10.87
2023-01-30T09:19:23.097Z,9.57
2023-01-30T09:20:25.883Z,11.57
2023-01-30T09:21:28.779Z,11.47
2023-01-30T09:22:30.497Z,11.77
2023-01-30T09:23:33.229Z,6.87
2023-01-30T09:24:36.112Z,9.27
2023-01-30T09:25:38.826Z,9.23
2023-01-30T09:26:44.847Z,8.87
2023-01-30T09:27:49.810Z,9.80
2023-01-30T09:28:52.666Z,7.60
2023-01-30T09:29:55.380Z,9.00
2023-01-30T09:30:59.029Z,10.57
2023-01-30T09:32:01.840Z,8.47
2023-01-30T09:33:04.624Z,9.03
2023-01-30T09:34:09.088Z,8.93
2023-01-30T09:35:11.046Z,8.70
2023-01-30T09:36:13.744Z,6.97
2023-01-30T09:37:15.510Z,8.47
2023-01-30T09:38:20.300Z,7.77
2023-01-30T09:39:23.012Z,9.03
2023-01-30T09:40:29.513Z,8.13
2023-01-30T09:41:49.896Z,8.67
2023-01-30T09:43:14.064Z,7.50
2023-01-30T09:44:40.958Z,6.90
2023-01-30T09:45:58.182Z,7.73
2023-01-30T09:47:06.088Z,7.10
2023-01-30T09:48:19.537Z,6.97
2023-01-30T09:49:31.253Z,7.67
2023-01-30T09:51:00.302Z,5.67
2023-01-30T09:52:12.521Z,9.93
2023-01-30T09:53:20.252Z,8.43
2023-01-30T09:54:25.428Z,9.27
2023-01-30T09:55:29.220Z,8.33
2023-01-30T09:56:32.222Z,5.00
2023-01-30T09:57:37.216Z,4.37
2023-01-30T09:58:45.174Z,5.70
2023-01-30T09:59:55.529Z,5.83
2023-01-30T10:01:04.855Z,7.73
2023-01-30T10:02:27.078Z,7.23
2023-01-30T10:03:32.408Z,6.13
2023-01-30T10:04:40.367Z,5.90
2023-01-30T10:05:45.597Z,3.70
2023-01-30T10:06:55.127Z,4.67
2023-01-30T10:08:12.339Z,5.97
2023-01-30T10:09:18.465Z,3.60
2023-01-30T10:10:28.777Z,6.43
2023-01-30T10:11:43.723Z,7.40
2023-01-30T10:12:55.451Z,5.13
2023-01-30T10:14:20.620Z,3.67
2023-01-30T10:15:29.977Z,4.90
2023-01-30T10:16:36.705Z,6.50
2023-01-30T10:17:49.695Z,12.07
2023-01-30T10:19:20.554Z,4.27
2023-01-30T10:20:39.629Z,8.53
2023-01-30T10:21:48.644Z,4.00
2023-01-30T10:22:58.335Z,3.93
2023-01-30T10:24:11.336Z,15.43
2023-01-30T10:25:21.830Z,9.53
2023-01-30T10:26:26.658Z,7.30
2023-01-30T10:27:30.545Z,8.57
2023-01-30T10:28:36.336Z,6.70
2023-01-30T10:29:40.564Z,4.47
2023-01-30T10:30:45.607Z,5.10
2023-01-30T10:31:50.930Z,5.37
2023-01-30T10:32:56.841Z,4.80
2023-01-30T10:34:02.535Z,3.80
2023-01-30T10:35:08.665Z,4.40
2023-01-30T10:36:14.966Z,4.60
2023-01-30T10:37:22.149Z,4.67
2023-01-30T10:38:31.316Z,8.67
2023-01-30T10:39:49.697Z,9.87
2023-01-30T10:41:00.285Z,9.57
2023-01-30T10:42:11.798Z,14.20
2023-01-30T10:43:20.841Z,9.87
2023-01-30T10:44:23.420Z,10.10
2023-01-30T10:45:30.923Z,4.80
2023-01-30T10:46:53.426Z,3.37
2023-01-30T10:48:16.454Z,3.33
2023-01-30T10:49:21.080Z,3.13
2023-01-30T10:50:29.281Z,4.67
2023-01-30T10:51:42.933Z,4.10
2023-01-30T10:52:52.648Z,2.77
2023-01-30T10:54:00.762Z,4.67
2023-01-30T10:55:08.851Z,5.20
2023-01-30T10:56:16.381Z,3.03
2023-01-30T10:57:24.785Z,4.73
2023-01-30T10:58:33.648Z,2.63
2023-01-30T10:59:45.762Z,3.73
2023-01-30T11:00:52.119Z,3.27
2023-01-30T11:02:01.441Z,3.83
2023-01-30T11:03:11.334Z,3.93
2023-01-30T11:04:22.696Z,3.50
2023-01-30T11:05:26.953Z,3.10
2023-01-30T11:06:30.478Z,2.70
2023-01-30T11:07:35.113Z,3.40
2023-01-30T11:08:38.001Z,3.60
2023-01-30T11:09:41.582Z,3.53
2023-01-30T11:10:44.315Z,6.43
2023-01-30T11:11:51.091Z,2.60
2023-01-30T11:12:54.362Z,3.20
2023-01-30T11:14:04.718Z,3.23
2023-01-30T11:15:09.051Z,2.50
2023-01-30T11:16:11.918Z,2.90
2023-01-30T11:17:17.560Z,1.83
2023-01-30T11:19:44.430Z,2.40
2023-01-30T11:20:57.098Z,2.90
2023-01-30T11:22:02.767Z,2.37
2023-01-30T11:23:08.280Z,1.87
2023-01-30T11:24:17.146Z,2.23
2023-01-30T11:25:22.033Z,2.13
2023-01-30T11:26:32.024Z,2.10
2023-01-30T11:27:43.301Z,2.47
2023-01-30T11:28:48.522Z,1.47
2023-01-30T11:29:52.502Z,2.13
2023-01-30T11:30:58.743Z,0.63
2023-01-30T11:32:03.864Z,1.80
2023-01-30T11:33:12.668Z,1.47
2023-01-30T11:34:16.734Z,1.17
2023-01-30T11:35:28.003Z,1.37
2023-01-30T11:36:31.952Z,0.93
2023-01-30T11:37:35.370Z,0.87
2023-01-30T11:38:39.695Z,0.97
2023-01-30T11:39:48.637Z,1.57
2023-01-30T11:40:51.630Z,0.37
2023-01-30T11:42:12.063Z,1.77
2023-01-30T11:43:15.750Z,1.93
2023-01-30T11:44:18.404Z,1.20
2023-01-30T11:45:22.358Z,1.93
2023-01-30T11:46:25.253Z,1.80
2023-01-30T11:47:29.172Z,1.67
2023-01-30T11:49:32.438Z,1.47
2023-01-30T11:50:11.974Z,0.83
2023-01-30T11:51:22.125Z,2.30
2023-01-30T11:52:28.523Z,1.30
2023-01-30T11:53:35.881Z,2.00
2023-01-30T11:54:41.863Z,1.67
2023-01-30T11:55:56.473Z,1.50
2023-01-30T11:57:06.272Z,1.27
2023-01-30T11:58:09.586Z,1.70
2023-01-30T11:59:24.864Z,1.47
2023-01-30T12:00:33.816Z,2.13
2023-01-30T12:01:38.099Z,1.13
2023-01-30T12:02:40.869Z,1.10
2023-01-30T12:03:48.672Z,1.03
2023-01-30T12:04:54.042Z,1.23
2023-01-30T12:05:57.484Z,1.83
2023-01-30T12:07:07.773Z,1.17
2023-01-30T12:08:39.324Z,0.80
2023-01-30T12:09:45.421Z,1.17
2023-01-30T12:10:50.172Z,1.50
2023-01-30T12:11:52.905Z,0.70
2023-01-30T12:12:56.497Z,1.33
2023-01-30T12:14:14.414Z,1.13
2023-01-30T12:15:23.319Z,1.17
2023-01-30T12:16:44.027Z,1.13
2023-01-30T12:17:51.937Z,1.37
2023-01-30T12:18:57.249Z,1.43
2023-01-30T12:20:03.129Z,1.47
2023-01-30T12:21:12.230Z,0.83
2023-01-30T12:22:22.976Z,1.23
2023-01-30T12:23:32.430Z,0.90
2023-01-30T12:24:39.723Z,1.00
2023-01-30T12:25:46.156Z,1.57
2023-01-30T12:26:52.488Z,1.63
2023-01-30T12:28:00.057Z,1.50
2023-01-30T12:29:04.928Z,1.33
2023-01-30T12:30:20.847Z,1.20
2023-01-30T12:31:26.608Z,2.37
2023-01-30T12:32:30.877Z,0.67
2023-01-30T12:33:36.122Z,2.00
2023-01-30T12:34:39.051Z,0.97
2023-01-30T12:35:51.237Z,1.13
2023-01-30T12:37:00.507Z,1.10
2023-01-30T12:38:09.474Z,1.23
2023-01-30T12:39:27.569Z,0.85
2023-01-30T12:40:45.956Z,1.17
2023-01-30T12:42:20.184Z,1.20
2023-01-30T12:43:36.231Z,1.03
2023-01-30T12:44:49.690Z,0.60
2023-01-30T12:46:00.843Z,0.90
2023-01-30T12:47:22.318Z,1.07
2023-01-30T12:48:48.180Z,1.02
2023-01-30T12:49:59.568Z,1.30
2023-01-30T12:51:10.336Z,1.20
2023-01-30T12:52:38.062Z,1.42
2023-01-30T12:53:48.811Z,1.20
2023-01-30T12:54:58.836Z,1.03
2023-01-30T12:56:30.021Z,1.73
2023-01-30T12:57:39.781Z,3.05
2023-01-30T12:58:47.123Z,1.70
2023-01-30T13:00:00.030Z,1.40
2023-01-30T13:01:12.364Z,1.60
2023-01-30T13:02:29.295Z,0.87
2023-01-30T13:03:37.172Z,1.90
2023-01-30T13:04:56.449Z,1.25
2023-01-30T13:06:15.706Z,3.03
2023-01-30T13:07:22.205Z,0.73
2023-01-30T13:08:54.092Z,1.60
2023-01-30T13:10:05.227Z,1.77
2023-01-30T13:11:16.830Z,0.80
2023-01-30T13:12:25.936Z,3.05
2023-01-30T13:13:33.547Z,2.30
2023-01-30T13:14:40.248Z,3.30
2023-01-30T13:15:45.542Z,2.27
2023-01-30T13:17:00.630Z,1.55
2023-01-30T13:18:09.422Z,1.35
2023-01-30T13:19:15.631Z,1.30
2023-01-30T13:20:33.045Z,1.90
2023-01-30T13:21:38.659Z,1.60
2023-01-30T13:22:47.477Z,2.07
2023-01-30T13:24:01.780Z,1.80
2023-01-30T13:25:14.180Z,1.30
2023-01-30T13:26:20.151Z,2.20
2023-01-30T13:27:23.997Z,1.53
2023-01-30T13:28:29.430Z,2.60
2023-01-30T13:29:34.121Z,1.57
2023-01-30T13:30:37.262Z,3.43
2023-01-30T13:31:46.274Z,1.13
2023-01-30T13:32:51.173Z,1.73
2023-01-30T13:34:06.609Z,0.87
2023-01-30T13:35:16.702Z,1.58
2023-01-30T13:36:22.235Z,1.02
2023-01-30T13:37:24.958Z,2.60
2023-01-30T13:38:29.114Z,1.40
2023-01-30T13:39:36.724Z,1.33
2023-01-30T13:40:46.031Z,2.67
2023-01-30T13:41:52.828Z,1.10
2023-01-30T13:42:59.396Z,1.17
2023-01-30T13:44:06.799Z,2.67
2023-01-30T13:45:16.141Z,1.40
2023-01-30T13:46:21.387Z,1.85
2023-01-30T13:47:33.421Z,0.80
2023-01-30T13:48:47.248Z,0.60
2023-01-30T13:49:57.629Z,1.50
2023-01-30T13:51:11.255Z,1.50
2023-01-30T13:52:21.839Z,1.88
2023-01-30T13:53:30.826Z,2.50
2023-01-30T13:54:43.220Z,4.05
2023-01-30T13:55:49.868Z,4.23
2023-01-30T13:56:56.242Z,2.93
2023-01-30T13:58:04.039Z,2.87
2023-01-30T13:59:16.526Z,1.70
2023-01-30T14:00:31.111Z,1.50
2023-01-30T14:02:11.479Z,3.75
2023-01-30T14:03:32.770Z,1.48
2023-01-30T14:04:45.276Z,1.67
2023-01-30T14:06:05.459Z,2.37
2023-01-30T14:07:11.371Z,4.32
2023-01-30T14:08:19.856Z,1.50
2023-01-30T14:09:26.527Z,2.80
2023-01-30T14:10:29.587Z,2.47
2023-01-30T14:11:35.074Z,3.60
2023-01-30T14:12:41.687Z,2.70
2023-01-30T14:13:52.963Z,2.58
2023-01-30T14:15:02.220Z,1.43
2023-01-30T14:16:06.117Z,5.53
2023-01-30T14:17:13.530Z,2.10
2023-01-30T14:18:22.926Z,4.70
2023-01-30T14:19:35.218Z,2.67